Date,TemperatureHighF,TemperatureAvgF,TemperatureLowF,DewpointHighF,DewpointAvgF,DewpointLowF,HumidityHigh,HumidityAvg,HumidityLow,PressureMaxIn,PressureMinIn,WindSpeedMaxMPH,WindSpeedAvgMPH,GustSpeedMaxMPH,PrecipitationSumIn
2013-1-2,60.3,55.7,50.5,17.9,14.3,11.1,22,19,18,30.02,29.97,8,4,14,0.00
2013-1-3,62.4,57.0,52.3,18.0,14.9,11.1,21,19,17,30.12,29.98,21,11,36,0.26
2013-1-4,65.7,51.6,38.7,26.5,15.1,5.1,48,24,15,30.21,30.07,14,1,21,0.00
2013-1-5,62.8,48.3,36.9,38.5,25.5,16.8,69,43,18,30.25,30.10,4,1,7,0.00
2013-1-6,52.5,45.7,39.2,46.9,41.1,35.0,99,84,63,30.15,29.97,11,2,17,0.03
2013-1-7,62.6,53.2,44.1,38.9,29.7,17.0,65,43,18,30.06,29.93,12,4,17,0.00
2013-1-8,74.1,63.1,50.4,34.7,26.8,17.3,53,27,16,30.07,29.93,12,4,18,0.00
2013-1-9,68.9,56.0,44.2,47.8,39.0,31.4,99,58,28,30.06,29.93,4,1,6,0.00
2013-1-10,54.9,46.0,36.7,46.9,32.8,16.6,99,64,23,30.06,29.85,10,2,17,0.00
2013-1-11,50.9,41.5,29.5,28.3,21.9,18.2,68,46,29,30.16,30.00,9,2,12,0.00
2013-1-12,52.2,41.5,31.8,26.4,20.2,10.9,68,45,19,30.11,30.00,12,3,19,0.00
2013-1-13,52.3,41.1,30.9,27.9,18.2,4.1,68,42,21,30.13,29.98,15,3,23,0.00
2013-1-14,47.8,41.1,32.2,10.9,3.7,-2.3,25,21,18,30.30,30.09,22,8,27,0.00
2013-1-15,57.9,50.0,41.2,18.6,10.8,3.2,23,20,18,30.38,30.24,17,8,24,0.01
2013-1-16,67.8,59.4,52.0,22.4,17.6,14.6,25,20,15,30.30,30.06,18,8,29,0.00
2013-1-17,71.1,64.7,59.5,18.4,16.2,14.9,19,15,12,30.11,29.98,24,12,36,0.07
2013-1-18,70.3,63.5,55.0,18.6,16.2,12.3,21,16,12,30.10,29.98,18,6,25,0.00
2013-1-19,72.7,64.2,54.1,18.4,15.9,11.6,21,15,11,30.12,30.00,13,5,20,0.00
2013-1-20,72.5,63.9,53.2,17.9,15.5,11.1,20,15,11,30.09,29.93,21,5,27,0.00
2013-1-21,75.6,66.0,54.3,22.6,16.9,11.7,20,15,11,30.04,29.93,17,6,25,0.00
2013-1-22,77.7,60.8,48.2,23.7,16.4,10.1,33,18,11,30.04,29.92,7,1,10,0.00
2013-1-23,74.8,61.2,50.2,47.7,25.9,13.3,91,29,15,30.07,29.93,5,1,7,0.09
2013-1-24,59.4,54.0,49.1,55.6,52.4,47.8,99,95,84,30.12,30.03,8,2,16,0.50
2013-1-25,58.6,56.1,54.3,56.0,52.1,46.6,98,87,66,30.09,29.90,12,2,17,0.32
2013-1-26,67.3,57.6,50.2,56.7,52.2,47.9,98,83,60,29.93,29.80,13,2,17,0.09
2013-1-27,58.5,50.3,45.1,51.4,41.9,22.5,99,76,39,29.98,29.86,8,2,13,0.01
2013-1-28,55.0,47.0,39.2,35.7,28.4,21.6,63,49,33,30.15,29.97,8,2,17,0.00
2013-1-29,59.7,46.1,36.7,41.4,33.1,26.9,78,62,31,30.18,30.06,4,1,8,0.00
2013-1-30,69.6,52.7,39.4,44.5,37.1,31.9,86,59,28,30.26,30.13,5,1,8,0.00
2013-1-31,74.7,59.6,43.5,41.5,34.9,16.2,68,42,21,30.21,30.01,11,2,14,12.80
2013-2-1,76.8,59.4,48.0,45.8,38.3,33.1,63,47,23,30.13,30.01,5,1,7,0.00
2013-2-2,72.3,62.6,53.1,44.8,38.7,29.2,59,43,21,30.13,30.03,13,3,21,0.00
2013-2-3,73.0,61.3,50.2,47.1,41.3,33.9,67,49,28,30.08,29.92,9,2,14,0.01
2013-2-4,73.8,56.2,45.5,52.6,42.5,14.7,87,62,32,30.01,29.88,11,1,14,1.61
2013-2-5,56.3,48.2,41.7,51.8,46.7,40.9,99,95,79,30.04,29.92,4,1,6,0.00
2013-2-6,63.9,51.4,41.7,50.3,45.6,40.1,99,83,45,30.07,29.92,6,1,9,0.00
2013-2-7,58.5,47.7,38.8,51.0,43.8,38.6,99,87,66,30.09,29.92,5,1,13,0.00
2013-2-8,50.0,43.1,35.2,44.4,37.8,33.0,94,82,59,29.92,29.80,11,2,14,0.06
2013-2-9,55.9,42.5,32.4,40.5,34.3,30.6,97,76,40,30.07,29.90,7,1,11,0.01
2013-2-10,52.5,43.0,34.7,45.4,38.1,33.0,99,84,59,30.07,29.94,3,0,5,0.00
2013-2-11,59.0,47.0,34.5,40.2,27.7,12.4,99,55,19,30.19,30.02,14,2,19,0.00
2013-2-12,62.2,49.4,35.4,32.0,23.7,12.5,63,38,18,30.27,30.16,7,2,12,0.00
2013-2-13,71.6,54.2,43.2,39.3,29.5,19.9,61,40,16,30.21,30.06,7,2,11,0.00
2013-2-14,74.1,58.9,41.5,37.5,27.4,16.8,66,35,12,30.13,29.97,11,3,21,0.00
2013-2-15,75.4,67.2,55.2,25.9,19.3,14.9,31,16,11,30.12,30.03,17,7,24,0.00
2013-2-16,79.0,62.4,48.0,27.9,19.1,12.2,37,20,11,30.13,29.92,7,1,11,0.00
2013-2-17,69.3,54.4,43.5,46.6,32.6,17.5,98,49,20,29.97,29.82,21,1,21,12.87
2013-2-18,61.9,51.4,46.2,47.7,45.4,42.5,99,81,53,29.99,29.86,8,2,9,12.87
2013-2-19,51.4,45.9,39.4,46.5,41.5,37.5,98,85,69,29.93,29.66,8,1,17,0.20
2013-2-20,57.2,44.4,33.4,37.6,31.0,25.0,92,61,42,29.96,29.66,8,2,14,0.00
2013-2-21,58.5,45.7,34.0,41.7,33.6,24.2,88,64,35,30.07,29.89,7,2,11,0.00
2013-2-22,63.9,49.3,36.1,36.1,29.9,21.6,73,51,20,30.14,30.02,7,1,9,0.02
2013-2-23,62.6,50.8,37.6,47.4,33.9,19.1,82,54,27,30.13,29.84,19,3,28,0.00
2013-2-24,61.5,52.4,45.3,28.9,16.7,10.1,48,25,17,30.14,29.95,20,5,27,0.00
2013-2-25,66.0,52.3,39.4,30.3,18.7,6.1,58,29,15,30.17,30.00,9,2,24,13.08
2013-2-26,70.0,56.7,38.5,32.6,21.8,14.9,63,30,12,30.06,29.90,15,4,24,0.00
2013-2-27,69.8,60.5,52.7,40.8,16.4,11.4,47,18,13,30.22,29.84,17,7,27,13.08
2013-2-28,76.5,65.4,54.5,27.5,18.3,14.3,32,17,11,30.25,30.14,12,5,120,13.08
2013-3-1,81.3,68.5,53.8,25.8,19.3,14.3,30,16,10,30.25,30.05,15,4,24,0.00
2013-3-2,82.6,65.7,52.2,37.5,26.5,19.3,41,24,11,30.18,29.99,8,1,12,0.00
2013-3-3,71.2,58.3,45.9,48.0,39.2,26.5,92,53,27,30.05,29.88,7,2,10,0.00
2013-3-4,66.2,53.9,44.8,52.2,47.7,43.0,99,82,53,30.06,29.93,5,2,9,0.00
2013-3-5,64.2,50.5,44.2,51.9,47.5,43.5,99,90,57,30.06,29.95,5,1,9,0.00
2013-3-6,54.7,49.0,41.9,49.7,46.0,41.4,99,90,64,30.09,29.94,5,1,10,0.01
2013-3-7,57.4,50.3,45.5,51.3,43.9,36.3,99,81,48,29.94,29.76,6,1,9,0.13
2013-3-8,55.8,47.5,39.9,47.2,42.7,39.7,99,85,59,29.97,29.72,8,2,11,0.25
2013-3-9,61.5,50.3,38.5,44.2,40.3,33.1,96,71,46,30.18,29.97,7,2,10,0.00
2013-3-10,72.3,59.6,42.4,34.3,24.3,14.3,71,30,11,30.19,30.07,13,4,21,0.00
2013-3-11,77.4,59.1,43.3,43.3,30.7,20.5,62,36,12,30.13,29.96,6,2,9,0.00
2013-3-12,84.0,62.4,45.9,49.0,36.5,22.5,69,42,11,30.05,29.91,6,1,8,0.00
2013-3-13,87.6,68.3,52.7,51.8,36.9,27.5,52,34,12,30.04,29.92,7,1,9,0.00
2013-3-14,88.3,67.5,52.2,53.2,41.2,33.0,62,41,16,30.03,29.91,5,1,10,0.00
2013-3-15,83.7,64.3,51.8,56.2,47.1,32.4,81,56,16,29.97,29.82,7,1,11,13.59
2013-3-16,69.1,58.0,45.7,55.0,49.1,42.4,92,73,54,29.90,29.78,7,2,10,0.00
2013-3-17,72.1,59.2,45.9,52.5,46.7,38.8,99,66,36,29.93,29.82,7,2,9,0.00
2013-3-18,62.8,52.8,44.6,53.1,48.6,42.6,99,87,68,30.02,29.91,6,2,10,0.00
2013-3-19,69.8,55.9,45.5,55.6,49.6,44.7,99,82,54,30.05,29.95,8,2,11,0.00
2013-3-20,69.8,58.8,49.8,53.9,48.9,45.0,94,72,46,30.03,29.89,8,2,12,0.00
2013-3-21,72.1,61.1,50.4,51.9,45.6,22.7,83,60,24,29.90,29.71,7,2,11,0.00
2013-3-22,74.7,59.7,42.6,46.9,30.1,13.1,62,35,15,29.85,29.73,10,2,20,0.00
2013-3-23,73.0,56.4,43.3,48.9,34.7,13.1,73,47,12,29.96,29.84,8,2,11,0.00
2013-3-24,76.6,58.2,43.7,53.4,39.6,23.1,97,54,23,29.96,29.81,8,1,11,0.00
2013-3-25,74.8,59.3,46.9,55.1,44.4,30.2,86,60,21,29.98,29.80,7,1,9,0.00
2013-3-26,70.2,56.4,44.6,52.4,47.6,42.4,96,74,48,29.90,29.82,8,2,11,13.59
2013-3-27,68.4,55.0,45.5,54.0,48.7,43.0,99,81,54,29.99,29.86,8,2,11,0.00
2013-3-28,72.7,56.4,46.2,56.3,50.5,45.3,99,83,50,30.01,29.92,6,2,9,0.00
2013-3-29,73.2,59.8,47.7,57.5,50.7,46.3,96,74,49,30.04,29.93,5,2,8,0.00
2013-3-30,73.0,58.3,49.1,57.8,49.6,43.5,99,75,49,30.06,29.96,7,2,11,0.00
2013-3-31,64.8,56.5,51.4,56.2,51.7,48.1,95,84,68,30.06,29.97,4,1,10,0.01
2013-4-1,63.7,54.5,49.6,52.9,50.0,48.1,99,86,64,30.10,30.00,6,2,11,0.00
2013-4-2,70.7,56.9,43.5,56.3,48.2,43.0,99,76,42,30.04,29.90,6,2,11,0.00
2013-4-3,76.1,59.9,46.9,57.3,50.7,44.7,96,74,45,30.02,29.89,6,2,10,0.00
2013-4-4,71.4,57.0,49.6,58.6,52.7,49.1,99,87,55,30.06,29.92,8,2,15,0.00
2013-4-5,70.5,59.0,52.0,56.9,53.2,49.0,98,82,51,30.01,29.89,8,2,12,0.00
2013-4-6,72.3,59.1,47.3,56.9,50.7,44.4,99,76,43,30.01,29.86,8,2,16,0.00
2013-4-7,75.7,63.1,50.7,52.2,46.4,42.2,84,57,32,29.91,29.69,10,2,12,0.00
2013-4-8,65.5,55.5,48.4,50.8,40.4,25.2,95,62,23,29.79,29.57,13,3,22,0.00
2013-4-9,70.3,57.1,43.3,39.0,32.5,19.9,71,44,15,29.97,29.78,8,2,12,0.00
2013-4-10,79.0,66.8,51.3,36.0,23.7,15.2,49,21,11,30.02,29.87,10,3,15,0.00
2013-4-11,70.7,58.5,51.4,43.2,36.9,34.1,60,46,28,29.93,29.83,4,1,7,0.00
2013-4-13,66.9,57.3,52.0,56.8,53.2,51.4,98,87,67,29.84,29.75,6,2,11,0.00
2013-4-14,63.0,54.7,51.8,53.4,50.5,48.9,98,86,73,29.81,29.74,5,1,8,0.00
2013-4-15,60.8,54.0,46.9,52.3,48.1,43.0,92,81,62,29.82,29.75,5,1,8,0.00
2013-4-16,62.1,52.2,40.3,54.0,36.9,17.5,98,61,23,29.94,29.80,8,2,14,0.00
2013-4-17,68.0,56.8,40.3,35.1,25.2,14.6,62,32,14,30.09,29.94,10,2,14,0.00
2013-4-18,69.4,59.7,52.3,27.0,18.8,15.3,32,21,13,30.14,30.04,17,6,23,0.00
2013-4-19,82.8,68.1,52.2,37.2,23.3,13.3,49,20,10,30.11,29.89,10,2,14,0.00
2013-4-20,88.2,70.2,54.3,51.5,35.3,24.6,56,30,10,29.94,29.77,11,3,20,0.00
2013-4-21,82.8,67.8,54.0,51.2,43.3,38.0,65,44,22,29.94,29.81,6,1,8,0.00
2013-4-22,72.3,59.0,47.8,57.2,51.5,42.3,99,78,54,29.94,29.79,5,2,10,0.00
2013-4-23,75.0,59.6,50.5,56.4,51.8,47.7,98,78,51,29.90,29.77,5,2,9,0.00
2013-4-24,59.0,54.7,51.1,54.5,51.7,46.0,98,90,74,29.93,29.83,4,1,6,0.00
2013-4-25,69.3,58.6,49.1,53.7,48.7,45.9,97,72,45,30.07,29.89,8,2,11,0.00
2013-4-26,74.8,60.0,45.0,54.7,48.6,41.9,93,69,44,30.09,30.00,6,2,11,0.02
2013-4-27,78.3,65.0,50.2,57.1,50.8,47.2,91,63,37,30.08,29.91,7,2,11,0.00
2013-4-28,79.2,64.2,50.0,58.8,53.5,48.1,96,71,43,29.94,29.76,6,2,10,0.00
2013-4-29,76.3,62.1,51.4,61.4,55.2,50.0,99,80,54,29.83,29.69,6,2,8,0.00
2013-4-30,70.0,59.1,52.9,56.2,53.3,51.3,98,82,59,29.82,29.72,7,2,8,0.00
2013-5-1,75.6,63.4,53.2,57.7,53.7,49.4,92,73,51,30.04,29.81,6,2,9,0.00
2013-5-2,86.4,73.6,49.1,50.7,26.6,14.6,98,28,10,30.05,29.90,21,7,29,13.62
2013-5-3,92.3,77.4,59.4,36.8,23.1,12.2,37,14,10,29.95,29.70,10,2,17,0.00
2013-5-4,78.1,64.9,52.7,61.7,43.4,24.7,97,49,21,29.76,29.61,5,2,11,0.00
2013-5-5,61.5,55.8,53.4,52.3,49.9,47.6,96,81,64,29.87,29.75,6,2,12,0.05
2013-5-6,66.6,57.5,52.2,56.6,50.8,44.3,99,80,47,29.96,29.81,5,1,8,0.27
2013-5-7,68.7,58.9,52.3,54.8,49.4,45.8,93,73,46,30.00,29.89,5,1,10,0.00
2013-5-8,69.4,59.0,50.9,54.1,49.2,43.8,96,72,45,30.03,29.97,8,2,12,0.00
2013-5-9,72.7,59.9,47.5,56.7,51.0,45.8,94,74,49,30.04,29.92,6,2,11,0.00
2013-5-10,81.0,65.6,50.7,59.5,54.3,49.6,98,70,39,30.02,29.90,8,2,12,0.00
2013-5-11,88.3,71.1,53.8,63.1,56.4,51.6,96,63,37,30.00,29.88,7,2,10,0.00
2013-5-12,95.2,79.0,61.0,63.4,53.6,46.4,76,45,22,29.98,29.82,9,2,11,0.00
2013-5-13,95.2,80.3,66.0,61.8,48.3,35.5,61,35,18,29.89,29.79,8,2,12,0.00
2013-5-14,80.4,66.0,53.1,57.5,48.9,37.3,87,56,28,29.93,29.81,8,2,11,0.00
2013-5-15,74.1,61.7,50.5,58.7,52.8,47.4,92,74,56,29.95,29.86,8,2,11,0.00
2013-5-16,71.6,59.1,51.3,58.2,53.6,49.1,99,83,59,29.92,29.81,7,1,10,0.00
2013-5-17,72.0,61.8,52.7,60.2,53.0,47.4,93,75,49,29.93,29.83,7,2,12,0.00
2013-5-18,74.5,62.4,50.9,58.1,51.8,46.8,98,71,47,29.96,29.87,8,2,11,0.01
2013-5-19,80.2,66.1,49.3,55.8,50.5,44.7,93,61,30,29.93,29.75,7,2,11,0.00
2013-5-20,84.9,69.7,52.7,59.5,52.0,39.4,94,58,30,29.88,29.78,7,2,11,0.00
2013-5-21,79.9,66.4,57.0,63.6,57.0,42.0,99,73,49,29.86,29.73,7,2,9,0.00
2013-5-22,73.9,62.3,50.9,57.9,53.3,44.9,97,74,52,29.78,29.67,6,2,11,0.00
2013-5-23,70.0,59.6,50.2,54.0,49.3,42.9,87,70,51,29.88,29.76,8,2,11,0.00
2013-5-24,71.4,59.3,47.7,56.2,49.1,42.6,91,70,47,29.93,29.85,7,2,10,0.00
2013-5-25,70.9,59.4,47.5,56.0,50.5,42.4,96,74,53,29.94,29.87,7,2,13,0.00
2013-5-26,72.7,60.7,47.8,57.3,50.9,45.0,97,72,49,29.95,29.89,8,2,11,0.00
2013-5-27,76.6,63.7,50.0,57.1,52.0,46.3,94,68,41,29.94,29.75,8,2,10,0.00
2013-5-28,79.0,66.7,52.9,57.5,53.9,50.9,94,66,42,29.82,29.64,7,2,11,0.00
2013-5-29,83.5,70.0,54.5,58.3,52.9,47.8,83,58,31,29.72,29.60,8,2,12,0.00
2013-5-30,80.4,68.0,52.9,60.6,55.1,49.7,92,65,42,29.80,29.69,7,2,9,0.00
2013-5-31,78.6,67.7,55.2,63.6,57.9,52.9,97,73,50,29.82,29.70,6,2,9,0.00
2013-6-1,64.2,59.1,55.9,58.8,55.6,54.2,95,89,80,29.78,29.75,2,0,4,0.00
2013-6-8,75.7,73.2,70.2,61.6,60.2,59.1,68,64,61,29.75,29.73,5,4,8,0.00
2013-6-10,70.7,63.3,57.7,55.7,54.8,54.1,92,74,59,29.88,29.81,5,2,8,0.01
2013-6-11,82.9,67.3,53.2,60.1,56.0,52.4,98,70,39,29.88,29.78,4,2,9,0.00
2013-6-12,76.1,63.8,54.5,62.9,57.8,53.1,99,82,60,29.92,29.84,6,2,10,0.00
2013-6-13,75.7,64.3,53.8,61.9,57.6,52.6,99,81,58,29.94,29.81,6,2,11,0.00
2013-6-14,76.8,64.9,55.2,61.9,57.5,52.6,98,79,57,29.85,29.74,6,2,10,0.00
2013-6-15,74.3,63.5,55.0,60.5,56.6,53.3,99,80,58,29.91,29.82,7,2,9,0.00
2013-6-16,77.5,63.9,51.3,61.1,55.6,50.7,99,77,45,29.96,29.85,6,2,10,0.00
2013-6-17,83.1,66.9,53.6,61.4,55.6,50.7,92,70,38,29.90,29.71,7,1,11,0.01
2013-6-18,78.1,66.2,54.3,59.9,54.7,50.9,92,69,40,29.84,29.74,6,2,9,13.97
2013-6-19,82.4,69.3,53.2,56.4,49.3,35.8,90,54,20,29.79,29.66,8,2,10,0.00
2013-6-20,79.2,71.8,54.3,53.0,47.9,40.4,77,45,28,29.76,29.73,4,2,7,0.00
2013-6-21,79.2,78.2,76.1,56.6,51.0,48.4,51,39,34,29.75,29.73,5,4,10,0.00
2013-6-22,78.4,71.4,58.8,59.7,56.7,53.4,84,61,44,29.80,29.72,8,3,11,0.00
2013-6-23,71.8,62.6,55.2,60.9,56.4,52.3,98,81,64,29.80,29.71,6,2,11,0.00
2013-6-24,69.1,62.4,54.3,60.0,56.8,51.7,96,83,67,29.88,29.76,6,1,10,0.00
2013-6-25,77.0,66.8,56.3,63.8,59.2,56.0,99,78,59,29.91,29.80,6,2,9,0.00
2013-6-26,87.1,73.8,61.3,65.2,60.6,57.0,88,65,43,29.89,29.80,6,2,9,0.00
2013-6-27,92.3,78.2,64.8,67.0,61.8,58.7,85,59,36,29.92,29.85,8,2,10,0.00
2013-6-28,93.4,78.7,63.9,67.2,60.7,56.0,79,56,39,29.92,29.75,6,2,9,0.00
2013-6-29,97.2,82.8,66.9,67.8,61.1,57.9,77,51,29,29.80,29.62,5,1,9,0.00
2013-6-30,99.1,84.0,71.2,68.0,61.5,56.5,64,49,31,29.72,29.60,4,1,8,0.00
2013-7-1,92.8,78.8,67.1,64.3,60.1,53.4,78,55,28,29.80,29.70,5,2,10,0.00
2013-7-2,90.7,75.1,64.2,67.2,62.3,57.9,87,66,38,29.87,29.79,4,1,8,0.00
2013-7-3,87.1,72.5,61.2,67.1,61.8,58.3,93,71,46,29.83,29.70,6,1,8,0.00
2013-7-4,84.0,72.2,60.6,66.3,61.5,57.5,93,71,46,29.76,29.63,5,2,8,0.00
2013-7-5,84.0,68.9,59.0,65.4,61.1,55.4,99,79,39,29.77,29.65,6,2,10,0.00
2013-7-6,80.6,68.1,58.6,66.2,61.5,57.2,99,81,59,29.76,29.64,5,2,8,0.00
2013-7-7,84.0,69.4,56.8,68.7,59.9,54.1,99,75,45,29.79,29.67,6,2,11,0.01
2013-7-8,89.6,74.1,57.0,62.2,54.9,-10.4,88,55,22,29.85,29.75,5,2,9,13.97
2013-7-9,93.2,79.0,65.5,64.6,56.2,48.4,65,47,30,29.86,29.82,5,2,8,0.00
2013-7-10,85.6,73.3,65.1,64.4,59.5,54.5,78,63,38,29.89,29.80,4,1,8,0.00
2013-7-11,77.2,71.2,63.9,65.0,61.9,57.7,90,73,64,29.88,29.78,5,1,8,0.00
2013-7-12,84.0,71.0,60.4,67.4,62.2,57.2,98,76,52,29.85,29.76,7,2,10,13.97
2013-7-13,85.1,71.4,58.1,64.6,58.3,53.2,88,65,39,29.87,29.74,6,1,10,0.00
2013-7-14,88.0,74.9,59.0,64.0,57.7,50.9,90,58,35,29.84,29.70,6,2,11,0.00
2013-7-15,85.3,72.7,57.7,63.5,55.5,45.6,82,57,32,29.81,29.70,7,2,10,0.00
2013-7-16,85.1,69.3,52.9,59.2,50.5,35.2,84,55,19,29.92,29.79,6,2,9,0.00
2013-7-17,86.5,71.1,53.2,56.1,49.0,41.8,77,49,21,29.95,29.85,7,2,11,0.00
2013-7-18,84.2,70.7,55.0,61.0,53.4,46.5,75,56,31,29.91,29.76,7,2,10,0.00
2013-7-19,82.9,70.2,57.7,61.6,56.1,50.4,82,63,40,29.83,29.71,6,2,9,0.00
2013-7-20,83.5,68.6,57.4,65.4,60.4,55.4,97,77,52,29.80,29.67,6,2,11,0.00
2013-7-21,79.2,70.4,64.4,66.3,62.4,57.7,89,76,57,29.85,29.73,4,1,7,0.00
2013-7-22,81.7,71.6,63.3,67.8,62.6,58.4,96,74,56,29.91,29.81,5,2,8,0.00
2013-7-23,81.9,69.8,59.7,65.8,60.2,56.8,94,73,52,29.93,29.84,6,2,11,0.00
2013-7-24,82.0,69.7,58.5,64.2,58.6,55.0,91,69,46,29.91,29.79,6,2,10,0.00
2013-7-25,81.7,69.8,59.0,64.8,59.6,55.1,91,71,53,29.94,29.83,6,2,11,0.00
2013-7-26,81.1,69.3,62.2,65.3,60.4,56.7,85,74,56,30.00,29.89,5,1,8,0.00
2013-7-27,81.1,70.1,60.4,64.6,59.9,55.8,91,71,51,29.94,29.77,7,2,9,0.00
2013-7-28,78.8,64.4,54.9,63.8,58.4,53.5,99,83,51,29.86,29.76,8,2,11,0.00
2013-7-29,79.2,65.5,55.6,62.5,57.5,52.3,99,78,42,29.97,29.85,66,2,66,13.97
2013-7-30,75.6,64.1,53.2,61.9,56.6,51.6,96,78,58,30.03,29.94,7,2,10,0.00
2013-7-31,73.8,61.8,53.6,62.2,56.1,51.8,99,83,60,30.04,29.91,7,2,10,0.00
2013-8-1,77.4,63.2,51.8,64.0,56.4,50.7,99,81,54,29.96,29.81,7,1,9,0.00
2013-8-2,77.9,65.2,53.1,64.0,57.5,51.2,96,77,56,29.90,29.80,7,2,9,0.00
2013-8-3,77.5,64.6,54.5,64.1,57.7,52.7,99,80,54,29.93,29.82,7,2,11,0.00
2013-8-4,77.5,64.3,51.3,63.4,56.3,50.7,99,78,48,29.94,29.83,5,2,8,0.00
2013-8-5,80.6,66.2,51.8,61.6,54.6,49.4,95,70,39,29.92,29.81,5,2,10,0.00
2013-8-6,77.7,63.5,49.8,62.2,55.6,48.4,99,77,50,29.97,29.88,5,2,9,0.00
2013-8-7,79.0,64.1,52.0,62.1,55.4,50.5,98,76,44,29.98,29.87,5,2,10,0.00
2013-8-8,79.0,65.1,52.3,61.5,55.0,49.0,96,72,49,29.93,29.81,6,2,11,0.00
2013-8-9,76.6,64.3,52.7,62.1,55.6,48.6,97,75,50,29.90,29.81,7,2,10,0.00
2013-8-10,77.0,63.5,52.3,62.9,55.8,50.7,99,78,50,29.95,29.86,6,2,10,0.00
2013-8-11,79.5,65.3,53.8,62.4,56.9,52.9,97,76,48,29.92,29.79,5,2,9,0.00
2013-8-12,79.0,66.8,55.4,64.0,58.1,53.1,96,75,52,29.88,29.79,5,2,10,0.00
2013-8-13,82.6,68.6,55.9,64.5,58.5,54.5,96,72,48,29.88,29.77,5,2,8,0.00
2013-8-14,89.1,71.9,55.9,66.3,57.4,46.9,94,64,31,29.83,29.70,4,1,8,0.00
2013-8-15,84.0,65.8,59.4,65.2,59.7,57.0,95,83,49,29.84,29.80,3,0,5,0.00
2013-8-16,84.4,76.3,66.0,62.0,53.7,48.1,57,46,31,29.87,29.78,4,2,8,0.00
2013-8-17,87.8,73.7,59.7,61.8,54.8,49.4,78,53,30,29.87,29.70,5,1,8,0.00
2013-8-18,86.2,71.5,57.4,64.8,57.1,51.0,85,63,41,29.83,29.69,5,1,36,13.97
2013-8-19,81.7,69.5,60.1,65.8,60.3,56.5,89,73,55,29.84,29.75,5,1,10,0.00
2013-8-20,84.7,67.8,55.8,65.7,58.6,54.5,97,75,44,29.86,29.74,6,2,11,0.00
2013-8-21,83.5,70.1,56.3,62.2,56.2,51.3,92,64,41,29.86,29.74,5,2,8,0.00
2013-8-22,88.3,73.7,58.6,61.0,53.5,46.5,76,52,28,29.85,29.71,8,2,9,0.00
2013-8-23,86.7,71.9,58.3,60.5,52.9,46.0,71,53,25,29.81,29.64,7,1,8,0.00
2013-8-24,85.3,70.8,55.2,59.4,50.7,39.7,79,51,21,29.80,29.65,5,1,9,0.00
2013-8-25,87.3,71.9,55.2,60.2,47.2,35.2,73,44,27,29.86,29.73,5,1,9,0.02
2013-8-26,91.0,75.5,58.3,62.9,47.5,32.3,57,38,19,29.86,29.72,7,1,8,0.00
2013-8-27,89.4,78.5,68.4,64.7,53.2,36.7,59,42,28,29.78,29.67,5,1,8,0.00
2013-8-28,90.0,77.9,66.0,63.0,51.8,37.6,69,42,21,29.81,29.70,4,1,8,0.00
2013-8-29,95.5,81.1,66.2,60.3,52.4,42.4,62,38,21,29.86,29.75,5,1,10,0.00
2013-8-30,93.7,82.9,72.1,68.2,61.3,49.9,73,49,41,29.87,29.79,6,1,9,0.00
2013-8-31,89.6,79.7,72.9,71.5,68.5,66.4,85,70,49,29.87,29.77,6,1,13,0.00
2013-9-1,86.5,77.1,68.9,71.4,68.1,64.7,90,75,58,29.84,29.75,7,2,11,0.00
2013-9-2,87.3,75.5,64.8,71.1,66.1,63.2,96,74,50,29.83,29.71,5,1,9,0.00
2013-9-3,91.6,78.9,66.9,68.8,62.9,57.7,86,61,37,29.81,29.71,6,1,10,0.00
2013-9-4,92.8,78.9,66.6,67.0,59.7,54.1,77,54,36,29.84,29.73,6,1,10,0.00
2013-9-5,95.2,80.3,67.3,65.1,56.5,49.0,71,46,23,29.80,29.71,4,1,8,0.00
2013-9-6,96.4,81.3,68.0,60.5,51.4,35.9,57,37,21,29.80,29.67,6,1,10,0.00
2013-9-7,95.4,79.2,68.0,60.0,49.2,36.8,54,36,24,29.78,29.68,6,1,10,0.00
2013-9-8,89.2,74.8,65.3,60.5,52.4,43.0,67,47,22,29.77,29.64,5,1,8,0.00
2013-9-9,80.1,66.4,61.7,58.8,53.6,50.5,76,64,44,29.72,29.68,2,0,4,0.00
2013-9-16,84.4,73.2,63.3,57.3,53.8,51.6,71,52,37,29.72,29.63,4,1,6,0.01
2013-9-17,79.5,66.8,55.2,60.9,54.4,48.8,87,66,45,29.75,29.62,5,1,9,0.00
2013-9-18,75.9,63.9,53.2,62.2,56.9,51.3,99,79,56,29.73,29.64,6,1,9,0.00
2013-9-19,79.2,65.3,54.5,63.4,58.1,53.4,98,80,54,29.76,29.64,4,1,9,0.00
2013-9-20,73.2,63.0,58.5,63.1,60.0,57.9,99,91,68,29.82,29.74,4,1,8,0.00
2013-9-21,72.5,62.7,57.4,60.3,58.2,54.8,98,86,58,29.84,29.73,6,1,11,0.00
2013-9-22,75.6,65.0,50.9,57.0,48.2,27.4,99,60,20,29.78,29.68,8,2,14,0.00
2013-9-23,91.4,74.2,56.7,50.7,41.2,33.8,63,33,16,29.81,29.70,11,2,16,0.01
2013-9-24,86.2,70.0,55.0,51.3,42.3,35.8,70,39,19,29.86,29.73,5,1,11,0.00
2013-9-25,73.2,62.9,52.0,60.0,52.5,44.1,94,70,50,29.78,29.60,8,1,11,0.00
2013-9-26,71.1,60.5,51.6,53.5,46.8,39.7,91,64,33,29.84,29.64,7,1,13,0.00
2013-9-27,80.8,66.7,49.5,44.7,29.1,20.1,77,28,11,29.93,29.81,14,4,22,0.00
2013-9-28,86.0,69.4,55.0,43.4,29.4,18.7,48,24,10,29.99,29.68,8,2,36,13.97
2013-9-29,84.7,68.2,54.1,41.7,33.8,26.4,51,30,14,29.99,29.85,5,1,8,0.00
2013-9-30,84.6,68.9,53.2,51.2,43.1,32.9,66,42,21,29.92,29.72,4,1,8,0.00
2013-10-1,77.7,66.0,55.8,58.1,52.7,48.8,84,64,38,29.85,29.76,6,1,9,0.00
2013-10-2,73.9,62.6,54.7,59.6,56.6,53.7,97,82,56,29.90,29.78,4,1,8,0.00
2013-10-3,56.5,53.3,53.1,56.2,52.7,52.5,99,98,97,29.86,29.83,0,0,1,0.00
2013-10-18,71.1,70.4,69.1,30.9,29.1,26.9,23,21,20,29.90,29.89,2,1,3,0.00
2013-10-19,79.5,64.2,54.7,43.3,32.8,20.4,44,32,16,29.94,29.85,4,1,7,0.02
2013-10-20,78.4,62.0,51.4,58.2,45.0,31.8,92,57,28,29.91,29.79,4,1,8,0.00
2013-10-21,74.7,59.9,47.1,58.4,51.9,44.8,96,77,42,29.92,29.80,4,1,8,0.00
2013-10-22,77.4,60.1,48.9,56.8,50.9,42.7,94,74,36,29.93,29.79,4,1,6,0.00
2013-10-23,68.2,55.7,47.5,61.1,52.9,47.2,99,91,66,29.91,29.79,5,1,8,0.00
2013-10-24,70.3,58.2,50.5,55.8,53.5,49.6,97,85,59,29.99,29.85,5,1,8,0.00
2013-10-25,75.2,58.0,49.5,60.2,53.2,49.2,99,86,46,30.06,29.91,4,1,7,0.00
2013-10-26,80.2,62.9,50.0,60.4,50.5,38.7,97,68,35,30.02,29.88,4,1,8,0.01
2013-10-27,74.3,60.2,51.3,57.7,49.1,39.2,96,69,38,29.92,29.73,5,1,9,0.00
2013-10-28,62.4,54.2,49.1,52.7,47.9,40.0,98,81,45,29.87,29.72,6,2,14,0.00
2013-10-29,62.6,52.2,43.7,52.3,46.6,43.2,99,83,53,29.95,29.84,4,1,8,0.00
2013-10-30,70.9,54.5,42.4,49.7,42.5,29.2,99,69,22,30.00,29.88,10,2,14,0.00
2013-10-31,77.5,59.0,43.7,47.4,39.8,29.0,87,54,17,30.02,29.89,5,1,8,0.00
2013-11-1,82.4,66.1,50.5,36.8,29.0,19.4,48,28,11,30.04,29.85,9,2,12,0.00
2013-11-2,82.6,63.2,51.6,45.2,36.1,27.8,70,40,14,29.94,29.75,6,1,8,0.00
2013-11-3,69.1,56.6,48.9,55.8,51.3,42.0,99,84,57,29.85,29.73,5,1,8,0.00
2013-11-4,66.9,56.4,47.8,56.0,49.7,27.9,98,81,29,29.89,29.71,11,1,16,0.00
2013-11-5,69.3,63.1,55.2,28.6,18.3,14.2,30,18,13,30.07,29.87,17,7,28,0.00
2013-11-6,77.2,67.1,53.6,22.6,16.3,11.1,20,14,10,30.12,30.02,14,5,25,0.00
2013-11-7,83.8,67.9,55.9,33.9,21.7,13.7,34,18,10,30.06,29.89,7,1,12,0.00
2013-11-8,79.5,62.4,50.4,50.2,31.9,18.6,65,35,13,29.94,29.82,4,1,8,0.00
2013-11-9,77.4,58.3,45.7,52.3,42.3,22.7,83,60,13,30.02,29.88,4,1,8,0.00
2013-11-10,82.0,58.3,48.2,51.1,39.5,19.0,72,54,10,30.06,29.92,4,1,8,0.00
2013-11-11,78.6,61.1,48.2,50.8,38.4,29.4,64,45,20,30.07,29.93,4,1,8,0.00
2013-11-12,82.0,68.8,52.9,49.8,34.3,19.9,60,32,11,30.09,29.96,12,2,18,0.00
2013-11-13,87.1,79.2,70.0,27.9,22.4,14.6,15,12,10,29.99,29.79,18,5,24,0.00
2013-11-14,89.1,72.4,56.8,43.5,29.8,15.0,48,23,10,29.87,29.68,11,1,18,0.00
2013-11-15,68.9,55.7,48.2,53.9,48.0,35.6,95,76,43,29.69,29.57,6,1,9,0.00
2013-11-16,63.5,55.2,48.9,55.5,50.7,47.4,98,86,67,29.88,29.67,7,0,8,0.00
2013-11-17,67.1,54.7,46.4,55.0,49.0,45.0,98,83,56,30.04,29.88,3,1,5,0.02
2013-11-18,64.6,53.3,45.5,56.3,50.0,44.7,99,89,67,30.08,29.96,4,1,7,0.00
2013-11-19,63.1,54.0,46.0,55.5,50.6,45.2,99,89,68,30.03,29.86,4,1,6,0.00
2013-11-20,61.7,54.9,48.4,56.3,52.2,48.0,99,91,73,29.91,29.79,3,0,5,0.00
2013-11-21,63.3,55.3,51.3,60.4,52.3,41.2,99,90,66,29.82,29.72,12,2,37,13.97
2013-11-22,54.1,51.2,49.3,41.5,37.5,35.9,67,59,53,29.91,29.79,25,15,37,0.01
2013-11-23,59.7,53.1,49.5,39.9,38.0,36.4,62,57,43,30.03,29.89,21,10,32,0.00
2013-11-24,64.6,55.7,48.6,42.2,39.2,33.3,76,55,33,30.13,30.02,12,4,15,0.00
2013-11-25,72.0,58.8,49.1,43.0,35.0,25.9,63,43,18,30.15,30.04,14,4,25,0.00
2013-11-26,74.3,60.1,47.7,40.2,35.9,26.7,63,43,18,30.14,29.95,8,2,14,0.00
2013-11-27,71.6,58.0,49.5,41.0,35.8,29.1,61,45,21,29.98,29.78,5,1,9,0.00
2013-11-28,66.0,56.0,48.9,46.9,40.3,35.5,72,56,35,29.99,29.82,5,1,10,0.00
2013-11-29,62.1,55.9,49.1,51.1,46.8,36.7,91,72,56,30.13,29.86,12,1,19,13.97
2013-11-30,72.1,61.9,48.2,45.0,35.5,28.9,82,41,21,30.13,29.97,12,3,21,13.97
2013-12-1,74.8,65.5,52.0,33.9,25.9,16.3,42,24,12,30.14,30.01,16,6,25,0.00
2013-12-2,73.8,59.7,48.9,39.3,29.6,21.7,52,33,18,30.08,29.84,4,1,6,0.00
2013-12-3,66.2,52.9,43.5,49.8,41.1,30.9,84,65,44,29.84,29.65,5,1,8,0.00
2013-12-4,57.9,46.5,36.1,40.2,21.5,12.3,84,40,18,29.92,29.70,11,2,16,0.00
2013-12-5,55.9,42.6,34.5,34.1,28.5,18.8,76,59,33,30.06,29.89,4,1,8,0.00
2013-12-6,57.0,42.4,33.1,39.1,32.9,25.2,87,70,49,30.10,30.00,4,0,8,0.00
2013-12-7,52.3,41.5,32.9,51.5,35.8,22.1,99,81,54,30.07,29.88,8,2,15,0.00
2013-12-8,53.6,42.0,31.3,33.6,23.7,7.6,71,50,23,30.15,30.00,15,2,24,0.00
2013-12-9,51.3,46.0,41.4,11.6,8.2,3.4,26,21,18,30.24,30.12,27,14,40,0.00
2013-12-10,58.5,50.3,45.1,16.4,9.5,4.2,22,19,17,30.21,30.02,23,7,35,0.00
2013-12-11,64.9,54.2,41.9,17.1,12.1,4.3,23,19,14,30.10,30.01,12,4,20,0.00
2013-12-12,69.1,55.9,42.1,35.4,24.5,15.3,52,32,13,30.14,30.01,5,1,9,0.01
2013-12-13,62.4,48.4,37.0,45.3,38.1,23.1,92,70,29,30.18,30.03,4,1,7,0.00
2013-12-14,69.1,63.3,55.6,23.0,17.0,15.3,28,17,13,30.21,30.10,21,9,35,0.00
2013-12-15,73.6,66.1,58.5,21.5,16.8,14.3,21,15,11,30.20,30.01,18,6,27,0.00
2013-12-16,79.7,70.1,61.2,25.5,18.8,14.3,19,14,11,30.07,29.95,11,3,16,0.00
2013-12-17,80.8,70.6,62.6,51.3,21.2,15.2,42,16,10,30.03,29.91,8,2,14,0.00
2013-12-18,71.6,58.9,47.5,53.3,41.8,24.3,96,59,21,29.93,29.76,4,1,6,0.00
2013-12-19,54.1,49.4,42.1,49.4,43.5,34.9,96,81,61,29.78,29.61,8,1,10,0.00
2013-12-20,61.7,51.1,41.4,38.0,32.0,17.8,81,52,20,29.90,29.72,13,3,18,0.00
2013-12-21,61.5,48.0,38.8,47.9,42.3,35.6,97,82,54,30.05,29.83,5,1,7,0.00
2013-12-22,69.4,50.7,39.9,52.9,44.4,36.9,99,82,34,30.21,30.04,5,1,9,0.00
2013-12-23,71.1,60.5,45.3,39.6,31.6,26.8,75,37,20,30.23,30.13,14,4,21,0.00
2013-12-24,76.1,66.9,57.0,33.3,27.7,19.3,36,24,13,30.14,29.99,17,5,24,0.00
2013-12-25,74.1,68.2,65.5,27.7,17.7,12.2,24,15,10,30.13,29.88,24,14,36,13.97
2013-12-26,73.6,67.5,58.1,19.7,14.4,12.2,18,13,10,30.09,29.97,23,9,30,0.00
2013-12-27,79.2,65.6,50.9,20.8,15.6,10.8,20,15,10,30.10,29.94,11,2,14,0.00
2013-12-28,75.4,59.4,47.8,36.7,23.0,11.1,56,27,10,29.96,29.81,4,1,8,0.00
2013-12-29,69.4,63.5,53.1,19.0,15.0,10.0,22,15,12,30.08,29.90,21,6,27,0.00
2013-12-30,73.2,56.8,43.7,19.5,13.5,5.2,31,18,10,30.18,30.05,4,1,7,0.00
2013-12-31,69.6,54.2,42.8,41.2,26.5,14.1,62,37,15,30.15,29.98,4,1,6,0.00
2014-1-1,76.6,61.6,44.1,29.4,21.8,13.3,49,25,10,30.06,29.92,11,3,17,0.00
2014-1-2,77.5,64.5,54.5,34.6,22.8,16.5,32,21,12,30.03,29.88,7,2,11,0.00